Aeroporto :
LOGIN :

Iscrizione | Disclaimer

   EN    FR    IT 

 










Sommario :    VFR   VFR Marginale   IFR   IFR Intensivo   IFR Molto Intensivo
Visibilità : 
Base nubi : 
>= 8 km
>= 3000ft
5 / 8 km
1000 / 3000 ft
1500m / 5 km
500 / 1000 ft
800 / 1500m
200 / 500 ft
< 800m
< 200 ft
Simboli :   Temporali  Nebbia  Neve Forte  Precipitazioni Forti  Vento > 20 kt
SIGMETs :   Varie  Temporali  Ghiacco  Turbolenza  Onda orograficha  Ceneri Vulcaniche







- Altitudine del aeroporto : 124 ft
- Codice IATA : RNS
- Carte del aeroporto


LFRN - Rennes

ULTIMO METAR :
  • 181500Z AUTO 28010KT 9999 SCT039 BKN045 09/06 Q1025 TEMPO 4000 RA

METARs OBSOLETI :
  • 181430Z AUTO 28010KT 9999 -RA FEW026/// SCT040/// BKN046/// ///TCU 08/06 Q1025 TEMPO 4000 RA BKN015
  • 181400Z AUTO 27009G23KT 240V310 9999 BKN027/// BKN074/// BKN084/// ///TCU 10/06 Q1025 TEMPO 4000 RA BKN015CB
  • 181330Z AUTO VRB04KT 9999 FEW047/// BKN068/// BKN082/// ///TCU 10/07 Q1025 TEMPO 4000 RA BKN015CB
  • 181300Z AUTO 24004KT 200V260 9999 FEW032/// SCT050/// BKN066/// ///CB 09/07 Q1025 TEMPO 4000 RA BKN015
  • 181230Z AUTO 30014KT 260V330 9999 2600 -RA SCT026/// BKN041/// BKN100/// ///CB 09/05 Q1025 TEMPO 4000 RA BKN014

TAF AMD TAF LFRN
Valido dal 18 a 13 ore il 19 a 12 ore UTC


181317Z 1813/1912 30010KT 9999 BKN020
TEMPO 1813/1815 4000 SHRA BKN015CB
TEMPO 1815/1821 4000 RA BKN015
BECMG 1821/1823 VRB03KT
TEMPO 1818/1907 BKN008
TEMPO 1822/1907 3000 BR
ATIS : +33 2 99 67 72 50
Nessun NOTAM noto per questo aeroporto.



MetMap, La meteo Aeronautica in un colpo d'occhio ! - Copyright ORBIFLY Dicembre 2007 - Disclaimer

ORBIFLY MET'MAP TEAM :

Programmazione e sviluppo : Alexandra Zaïnal
Concezione e sviluppo : Baudouin d'Aumeries
Co-Programmazione e sviluppo : Marc-Olivier Méhu
Supporto tecnico e logistico : Manuel Goepfert
Aiuto per la traduzione : Arnaldo La Scala

Contatto : metmap@orbifly.com




FONTI E CREDITI :

   NOAA